Time;durP1;ratioP1;P1;durP2;ratioP2;P2;SDS_P1;SDS_P2;PMS_P1;PMS_P2;Temp;Humidity;BMP_temperature;BMP_pressure;BME280_temperature;BME280_humidity;BME280_pressure;Samples;Min_cycle;Max_cycle;Signal;HPM_P1;HPM_P2
2022/09/07 00:00:09;;;;;;;10.00;9.50;;;;;;;14.14;98.34;101377.72;5054723;28;20025;-63
2022/09/07 00:02:35;;;;;;;10.00;9.50;;;;;;;14.13;97.80;101379.56;5054557;28;20476;-61
2022/09/07 00:05:00;;;;;;;10.43;9.93;;;;;;;13.98;98.40;101383.97;5054232;28;20036;-64
2022/09/07 00:07:26;;;;;;;9.98;9.48;;;;;;;14.00;99.11;101380.13;5054714;28;20492;-62
2022/09/07 00:09:51;;;;;;;10.13;9.65;;;;;;;13.90;98.38;101379.53;5041495;28;20033;-63
2022/09/07 00:12:17;;;;;;;9.40;9.00;;;;;;;13.84;98.89;101377.56;5050959;28;20107;-63
2022/09/07 00:14:42;;;;;;;9.73;9.30;;;;;;;13.85;98.29;101375.72;5051907;28;20021;-62
2022/09/07 00:17:08;;;;;;;9.93;9.43;;;;;;;13.87;98.94;101376.38;5054164;28;20021;-63
2022/09/07 00:19:33;;;;;;;10.00;9.50;;;;;;;13.80;98.83;101368.22;5054179;28;20020;-62
2022/09/07 00:21:59;;;;;;;9.65;9.25;;;;;;;13.79;98.34;101363.91;5054217;28;20024;-63
2022/09/07 00:24:24;;;;;;;10.45;9.95;;;;;;;13.76;98.51;101366.94;5052773;28;20021;-62
2022/09/07 00:26:53;;;;;;;9.93;9.50;;;;;;;13.70;98.73;101364.97;5050627;28;20057;-63
2022/09/07 00:29:18;;;;;;;9.77;9.38;;;;;;;13.70;98.49;101362.28;5053309;28;20444;-62
2022/09/07 00:31:44;;;;;;;9.73;9.32;;;;;;;13.68;98.34;101365.16;5054320;28;20104;-63
2022/09/07 00:34:09;;;;;;;9.82;9.40;;;;;;;13.62;98.69;101360.50;5054007;28;20480;-63
2022/09/07 00:36:35;;;;;;;9.75;9.35;;;;;;;13.58;99.40;101363.69;5048147;28;20480;-63
2022/09/07 00:39:01;;;;;;;9.70;9.30;;;;;;;13.66;98.62;101355.63;5054209;28;20034;-62
2022/09/07 00:41:27;;;;;;;10.23;9.73;;;;;;;13.60;98.67;101359.84;5052744;28;20040;-62
2022/09/07 00:43:55;;;;;;;9.52;9.13;;;;;;;13.59;98.62;101355.53;5038702;28;20045;-63
2022/09/07 00:46:25;;;;;;;9.95;9.45;;;;;;;13.33;100.00;101350.47;5035656;28;20044;-63
2022/09/07 00:48:50;;;;;;;9.70;9.30;;;;;;;13.36;100.00;101347.44;5051790;28;20025;-63
2022/09/07 00:51:29;;;;;;;10.00;9.50;;;;;;;13.33;100.00;101355.78;5053636;28;20353;-63
2022/09/07 00:54:00;;;;;;;9.63;9.23;;;;;;;13.36;100.00;101351.94;5041094;28;20036;-63
2022/09/07 00:56:30;;;;;;;10.02;9.52;;;;;;;13.34;100.00;101352.13;5053775;28;20025;-63
2022/09/07 00:58:57;;;;;;;10.30;9.80;;;;;;;13.22;100.00;101349.03;5049839;28;20040;-63
2022/09/07 01:01:23;;;;;;;9.70;9.30;;;;;;;13.17;100.00;101351.31;5052059;28;20032;-62
2022/09/07 01:03:51;;;;;;;9.90;9.40;;;;;;;13.24;100.00;101352.34;5053188;28;20025;-62
2022/09/07 01:06:25;;;;;;;9.88;9.40;;;;;;;13.23;100.00;101344.53;5053550;28;20444;-63
2022/09/07 01:08:52;;;;;;;9.50;9.10;;;;;;;13.12;100.00;101348.34;5053204;28;20028;-63
2022/09/07 01:11:19;;;;;;;9.80;9.30;;;;;;;13.12;100.00;101352.84;5053157;28;20029;-62
2022/09/07 01:13:46;;;;;;;9.90;9.45;;;;;;;13.27;100.00;101346.66;5053103;28;20021;-63
2022/09/07 01:16:26;;;;;;;9.90;9.40;;;;;;;13.12;100.00;101348.34;5048559;28;20045;-63
2022/09/07 01:18:59;;;;;;;10.57;10.07;;;;;;;12.94;100.00;101342.41;5041498;28;20162;-62
2022/09/07 01:21:51;;;;;;;10.30;9.80;;;;;;;12.83;100.00;101346.25;5053322;28;20028;-62
2022/09/07 01:24:29;;;;;;;9.57;9.18;;;;;;;12.76;100.00;101341.75;5052812;28;20032;-63
2022/09/07 01:27:07;;;;;;;10.07;9.57;;;;;;;12.64;100.00;101347.44;5052885;28;20025;-63
2022/09/07 01:29:55;;;;;;;9.95;9.45;;;;;;;12.51;100.00;101344.47;5052831;28;20384;-62
2022/09/07 01:32:36;;;;;;;11.50;10.90;;;;;;;12.51;100.00;101338.31;5040703;28;20107;-63
2022/09/07 01:35:08;;;;;;;10.30;9.80;;;;;;;12.41;100.00;101322.50;5039975;28;20032;-63
2022/09/07 01:37:50;;;;;;;10.77;10.27;;;;;;;12.36;100.00;101328.34;5051727;28;20105;-63
2022/09/07 01:40:22;;;;;;;10.35;9.85;;;;;;;12.23;100.00;101329.81;5051115;28;20033;-63
2022/09/07 01:42:59;;;;;;;10.25;9.75;;;;;;;12.28;100.00;101343.47;5052065;28;20139;-62
2022/09/07 01:45:30;;;;;;;9.85;9.35;;;;;;;12.25;100.00;101339.28;5052430;28;20476;-62
2022/09/07 01:47:59;;;;;;;10.40;9.90;;;;;;;12.31;100.00;101329.81;5037444;28;20389;-63
2022/09/07 01:50:48;;;;;;;10.15;9.65;;;;;;;12.37;100.00;101327.34;5044625;28;20056;-63
2022/09/07 01:53:37;;;;;;;10.40;9.90;;;;;;;12.47;100.00;101327.16;5052308;28;20032;-63
2022/09/07 01:56:16;;;;;;;9.60;9.20;;;;;;;12.54;100.00;101337.97;5049221;28;20523;-63
2022/09/07 01:58:54;;;;;;;10.00;9.50;;;;;;;12.40;100.00;101334.13;5040107;28;20078;-63
2022/09/07 02:01:25;;;;;;;9.65;9.25;;;;;;;12.38;100.00;101329.00;5052343;28;20025;-62
2022/09/07 02:03:58;;;;;;;9.90;9.40;;;;;;;12.36;100.00;101335.50;5052050;28;20025;-63
2022/09/07 02:07:01;;;;;;;9.73;9.30;;;;;;;12.15;100.00;101335.97;5046439;28;20079;-62
2022/09/07 02:09:36;;;;;;;10.10;9.60;;;;;;;12.16;100.00;101334.97;5030663;28;20358;-63
2022/09/07 02:12:13;;;;;;;9.90;9.40;;;;;;;11.97;100.00;101325.50;5050280;28;20063;-62
2022/09/07 02:14:43;;;;;;;10.30;9.80;;;;;;;11.97;100.00;101340.59;5050869;28;20055;-62
2022/09/07 02:17:36;;;;;;;10.23;9.73;;;;;;;12.04;100.00;101317.66;5052018;28;20067;-63
2022/09/07 02:20:10;;;;;;;10.32;9.82;;;;;;;12.04;100.00;101322.97;5051845;28;20069;-63
2022/09/07 02:22:38;;;;;;;;;;;;;;;11.97;100.00;101321.97;5049829;28;20013;-63
2022/09/07 02:25:06;;;;;;;10.60;10.10;;;;;;;11.95;100.00;101319.50;5050641;28;20039;-62
2022/09/07 02:27:45;;;;;;;9.68;9.27;;;;;;;11.84;100.00;101319.81;5048558;28;20025;-63
2022/09/07 02:30:11;;;;;;;10.10;9.60;;;;;;;11.89;100.00;101318.31;5052094;28;20033;-62
2022/09/07 02:32:37;;;;;;;10.02;9.52;;;;;;;11.85;100.00;101322.31;5051918;28;20021;-64
2022/09/07 02:35:04;;;;;;;10.13;9.63;;;;;;;11.85;100.00;101318.81;5051674;28;20561;-63
2022/09/07 02:37:30;;;;;;;9.98;9.48;;;;;;;11.82;100.00;101311.16;5051661;28;20021;-63
2022/09/07 02:39:56;;;;;;;9.95;9.45;;;;;;;11.80;100.00;101315.78;5039225;28;20033;-62
2022/09/07 02:42:22;;;;;;;9.65;9.25;;;;;;;11.84;100.00;101318.00;5048925;28;20098;-62
2022/09/07 02:44:48;;;;;;;9.90;9.40;;;;;;;11.80;100.00;101326.41;5051703;28;20037;-63
2022/09/07 02:47:37;;;;;;;9.85;9.35;;;;;;;11.74;100.00;101324.41;5039528;28;20056;-63
2022/09/07 02:50:11;;;;;;;9.75;9.27;;;;;;;11.76;100.00;101323.25;5045209;28;20025;-63
2022/09/07 02:53:00;;;;;;;9.57;9.18;;;;;;;11.75;100.00;101320.75;5051409;28;20033;-64
2022/09/07 02:55:59;;;;;;;9.90;9.40;;;;;;;11.70;100.00;101310.63;5049946;28;20387;-63
2022/09/07 02:58:44;;;;;;;9.63;9.20;;;;;;;11.89;100.00;101302.34;5049230;28;20029;-63
2022/09/07 03:01:55;;;;;;;10.40;9.90;;;;;;;11.76;100.00;101315.28;5051478;28;20439;-62
2022/09/07 03:04:42;;;;;;;10.45;9.95;;;;;;;11.69;100.00;101316.94;5031635;28;20657;-62
2022/09/07 03:07:16;;;;;;;10.95;10.40;;;;;;;11.53;100.00;101312.41;5051232;28;20072;-63
2022/09/07 03:09:47;;;;;;;10.07;9.57;;;;;;;11.71;100.00;101312.28;5051402;28;20037;-62
2022/09/07 03:12:13;;;;;;;10.30;9.80;;;;;;;11.62;100.00;101303.47;5037446;28;20032;-62
2022/09/07 03:14:40;;;;;;;10.20;9.70;;;;;;;11.66;100.00;101311.91;5050729;28;20117;-62
2022/09/07 03:17:06;;;;;;;10.00;9.50;;;;;;;11.63;100.00;101307.78;5050953;28;20032;-62
2022/09/07 03:19:31;;;;;;;10.00;9.50;;;;;;;11.56;100.00;101312.06;5051080;28;20028;-62
2022/09/07 03:21:57;;;;;;;9.90;9.40;;;;;;;11.46;100.00;101303.41;5051136;28;20025;-62
2022/09/07 03:24:22;;;;;;;10.10;9.60;;;;;;;11.45;100.00;101304.38;5043211;28;20054;-62
2022/09/07 03:26:50;;;;;;;9.82;9.32;;;;;;;11.51;100.00;101309.06;5050694;28;20108;-61
2022/09/07 03:29:15;;;;;;;10.02;9.52;;;;;;;11.44;100.00;101301.91;5047764;28;20021;-62
2022/09/07 03:31:41;;;;;;;9.77;9.30;;;;;;;11.50;100.00;101311.88;5050718;28;20036;-63
2022/09/07 03:34:07;;;;;;;10.48;9.98;;;;;;;11.38;100.00;101307.84;5037033;28;20353;-63
2022/09/07 03:36:33;;;;;;;9.88;9.40;;;;;;;11.30;100.00;101312.13;5048197;28;20024;-63
2022/09/07 03:38:59;;;;;;;10.02;9.52;;;;;;;11.39;100.00;101314.84;5047721;28;20041;-64
2022/09/07 03:41:26;;;;;;;11.02;10.43;;;;;;;11.44;100.00;101309.88;5049829;28;20384;-63
2022/09/07 03:43:52;;;;;;;10.00;9.50;;;;;;;11.42;100.00;101317.16;5050824;28;20049;-63
2022/09/07 03:46:18;;;;;;;9.82;9.35;;;;;;;11.60;100.00;101315.22;5045420;28;20040;-63
2022/09/07 03:48:45;;;;;;;10.15;9.65;;;;;;;11.52;100.00;101313.38;5045574;28;20028;-63
2022/09/07 03:51:12;;;;;;;9.48;9.07;;;;;;;11.53;100.00;101312.41;5032767;28;20021;-63
2022/09/07 03:53:40;;;;;;;9.82;9.38;;;;;;;11.51;100.00;101313.53;5032479;28;20056;-61
2022/09/07 03:56:09;;;;;;;10.05;9.55;;;;;;;11.57;100.00;101313.72;5044924;28;20036;-63
2022/09/07 03:58:34;;;;;;;10.30;9.80;;;;;;;12.01;100.00;101302.88;5036151;28;20025;-62
2022/09/07 04:01:05;;;;;;;9.90;9.40;;;;;;;11.91;100.00;101312.03;5048785;28;20025;-63
2022/09/07 04:03:31;;;;;;;10.00;9.50;;;;;;;12.04;100.00;101310.50;5045986;28;20464;-62
2022/09/07 04:06:01;;;;;;;9.77;9.30;;;;;;;12.73;100.00;101316.31;5049879;28;20049;-63
2022/09/07 04:08:28;;;;;;;10.00;9.50;;;;;;;12.51;100.00;101323.16;5052259;28;20033;-61
2022/09/07 04:10:58;;;;;;;10.25;9.75;;;;;;;12.35;100.00;101310.72;5054491;28;20067;-63
2022/09/07 04:13:28;;;;;;;11.95;11.35;;;;;;;12.15;100.00;101304.88;5049729;28;20025;-63
2022/09/07 04:15:54;;;;;;;10.82;10.32;;;;;;;12.17;100.00;101312.69;5040720;28;20108;-63
2022/09/07 04:18:20;;;;;;;10.20;9.70;;;;;;;12.08;100.00;101298.56;5045839;28;20547;-62
2022/09/07 04:20:46;;;;;;;10.35;9.85;;;;;;;13.19;100.00;101306.69;5042427;28;20025;-62
2022/09/07 04:23:12;;;;;;;10.15;9.65;;;;;;;13.84;100.00;101313.56;5038932;28;20036;-62
2022/09/07 04:25:45;;;;;;;10.73;10.23;;;;;;;14.89;99.98;101303.81;5052286;28;20056;-63
2022/09/07 04:28:11;;;;;;;9.70;9.30;;;;;;;12.93;100.00;101311.47;5045984;28;20029;-62
2022/09/07 04:30:36;;;;;;;10.05;9.55;;;;;;;13.21;100.00;101310.03;5049572;28;20043;-63
2022/09/07 04:33:02;;;;;;;10.57;10.07;;;;;;;12.77;100.00;101306.97;5053957;28;20555;-62
2022/09/07 04:35:28;;;;;;;10.68;10.18;;;;;;;13.73;100.00;101324.59;5048504;28;20021;-62
2022/09/07 04:37:53;;;;;;;10.73;10.23;;;;;;;15.33;98.35;101312.81;5052509;28;20096;-61
2022/09/07 04:40:19;;;;;;;10.40;9.90;;;;;;;14.94;96.84;101313.94;5050536;28;20053;-63
2022/09/07 04:42:44;;;;;;;10.45;9.95;;;;;;;15.98;91.51;101309.25;5052109;28;20087;-63
2022/09/07 04:45:10;;;;;;;10.82;10.32;;;;;;;16.69;89.68;101310.09;5047021;28;20084;-62
2022/09/07 04:47:36;;;;;;;11.23;10.73;;;;;;;16.91;86.23;101312.72;5045659;28;20036;-62
2022/09/07 04:50:02;;;;;;;10.27;9.77;;;;;;;17.28;80.58;101320.34;5032756;28;20599;-63
2022/09/07 04:52:27;;;;;;;10.93;10.43;;;;;;;17.16;81.12;101321.91;5037941;28;20071;-63
2022/09/07 04:54:53;;;;;;;10.80;10.30;;;;;;;18.57;71.67;101314.81;5040063;28;20053;-63
2022/09/07 04:57:24;;;;;;;10.30;9.80;;;;;;;18.34;72.41;101311.72;5049124;28;20037;-62
2022/09/07 04:59:50;;;;;;;10.23;9.77;;;;;;;19.40;63.68;101315.06;5043413;28;20048;-63
2022/09/07 05:02:16;;;;;;;10.55;10.05;;;;;;;18.74;66.20;101320.63;5051636;28;20025;-63
2022/09/07 05:04:41;;;;;;;10.43;9.93;;;;;;;18.78;63.70;101316.47;5051847;28;20089;-63
2022/09/07 05:07:07;;;;;;;10.25;9.80;;;;;;;22.44;52.00;101313.81;5050855;28;20476;-62
2022/09/07 05:09:32;;;;;;;10.70;10.20;;;;;;;20.62;53.94;101316.56;5052111;28;20454;-61
2022/09/07 05:11:58;;;;;;;10.40;9.90;;;;;;;20.81;53.48;101319.28;5048032;28;20408;-63
2022/09/07 05:14:23;;;;;;;10.73;10.23;;;;;;;21.13;52.47;101310.00;5043346;28;20056;-62
2022/09/07 05:16:49;;;;;;;10.45;9.95;;;;;;;22.22;46.40;101313.56;5034542;28;20025;-62
2022/09/07 05:19:15;;;;;;;10.68;10.18;;;;;;;21.68;48.65;101309.16;5051794;28;20039;-63
2022/09/07 05:21:40;;;;;;;10.57;10.07;;;;;;;22.25;47.13;101310.38;5052364;28;20029;-63
2022/09/07 05:24:06;;;;;;;10.50;10.00;;;;;;;22.85;46.23;101310.19;5052023;28;20932;-63
2022/09/07 05:26:35;;;;;;;10.55;10.05;;;;;;;22.21;44.22;101320.00;5052173;28;20025;-63
2022/09/07 05:29:03;;;;;;;10.82;10.32;;;;;;;22.69;45.88;101312.75;5050113;28;20033;-63
2022/09/07 05:31:30;;;;;;;10.93;10.43;;;;;;;22.07;45.68;101307.72;5047339;28;20025;-62
2022/09/07 05:33:56;;;;;;;10.38;9.88;;;;;;;23.08;45.60;101313.94;5039671;28;20033;-62
2022/09/07 05:36:26;;;;;;;10.63;10.13;;;;;;;23.01;41.04;101305.13;5040229;28;20387;-63
2022/09/07 05:38:55;;;;;;;11.25;10.75;;;;;;;23.46;42.29;101315.25;5040814;28;20040;-63
2022/09/07 05:41:26;;;;;;;11.02;10.52;;;;;;;23.65;42.15;101319.41;5050746;28;20396;-63
2022/09/07 05:43:53;;;;;;;10.25;9.85;;;;;;;24.38;41.78;101315.84;5051939;28;20140;-62
2022/09/07 05:46:19;;;;;;;10.90;10.40;;;;;;;24.49;40.46;101317.66;5040132;28;20029;-63
2022/09/07 05:48:45;;;;;;;10.15;9.75;;;;;;;25.34;38.62;101315.59;5044709;28;20033;-63
2022/09/07 05:51:12;;;;;;;10.00;9.60;;;;;;;24.60;40.52;101324.03;5051232;28;20033;-62
2022/09/07 05:53:39;;;;;;;10.75;10.25;;;;;;;22.95;41.39;101317.72;5041814;28;20052;-62
2022/09/07 05:56:06;;;;;;;10.63;10.13;;;;;;;25.06;37.76;101314.69;5037174;28;20036;-61
2022/09/07 05:58:33;;;;;;;10.50;10.00;;;;;;;21.82;45.69;101313.31;5043940;28;20043;-61
2022/09/07 06:01:08;;;;;;;10.57;10.07;;;;;;;21.14;48.46;101311.66;5051902;28;20037;-60
2022/09/07 06:03:35;;;;;;;10.23;9.82;;;;;;;20.09;51.43;101318.84;5051831;28;20472;-61
2022/09/07 06:06:12;;;;;;;10.95;10.45;;;;;;;19.72;53.22;101307.06;5050991;28;20040;-62
2022/09/07 06:08:42;;;;;;;10.55;10.05;;;;;;;21.05;52.45;101306.78;5049977;28;20366;-62
2022/09/07 06:11:10;;;;;;;10.25;9.82;;;;;;;18.85;56.85;101306.53;5052271;28;20035;-62
2022/09/07 06:13:37;;;;;;;10.80;10.30;;;;;;;18.46;62.57;101310.06;5047612;28;20118;-61
2022/09/07 06:16:04;;;;;;;10.15;9.73;;;;;;;18.21;66.61;101312.53;5052105;28;20035;-61
2022/09/07 06:18:35;;;;;;;10.70;10.20;;;;;;;18.04;72.58;101313.97;5051809;28;20024;-63
2022/09/07 06:21:05;;;;;;;10.60;10.10;;;;;;;18.52;67.16;101308.44;5052224;28;20403;-62
2022/09/07 06:23:32;;;;;;;10.70;10.20;;;;;;;19.20;67.02;101306.25;5048083;28;20128;-63
2022/09/07 06:25:58;;;;;;;12.52;11.93;;;;;;;20.64;65.14;101308.28;5048911;28;20140;-60
2022/09/07 06:28:28;;;;;;;10.75;10.25;;;;;;;22.65;53.92;101304.28;5043375;28;20036;-64
2022/09/07 06:30:58;;;;;;;9.82;9.43;;;;;;;18.47;69.59;101301.81;5050133;28;20122;-60
2022/09/07 06:33:23;;;;;;;10.32;9.82;;;;;;;17.73;74.81;101307.31;5055649;28;20116;-61
2022/09/07 06:35:57;;;;;;;10.60;10.10;;;;;;;20.42;65.49;101314.03;5048213;28;20091;-61
2022/09/07 06:38:23;;;;;;;10.75;10.25;;;;;;;20.98;62.31;101313.06;5044068;28;20029;-65
2022/09/07 06:40:49;;;;;;;10.38;9.88;;;;;;;20.94;60.67;101313.75;5039171;28;20033;-67
2022/09/07 06:43:14;;;;;;;11.20;10.70;;;;;;;20.62;62.71;101323.81;5051054;28;20420;-65
2022/09/07 06:45:41;;;;;;;10.40;9.90;;;;;;;20.34;62.83;101314.28;5039246;28;20057;-67
2022/09/07 06:48:07;;;;;;;10.80;10.30;;;;;;;20.85;63.88;101313.22;5037204;28;20116;-66
2022/09/07 06:50:33;;;;;;;12.43;11.82;;;;;;;19.29;68.51;101307.66;5032996;28;20396;-68
2022/09/07 06:52:58;;;;;;;10.43;9.93;;;;;;;23.09;58.09;101302.03;5035547;28;20553;-69
2022/09/07 06:55:26;;;;;;;11.00;10.50;;;;;;;21.32;57.10;101308.16;5033942;28;20026;-69
2022/09/07 06:57:52;;;;;;;9.80;9.40;;;;;;;22.34;53.82;101310.88;5039834;28;20033;-69
2022/09/07 07:00:19;;;;;;;10.55;10.05;;;;;;;23.08;53.74;101306.63;5045559;28;20029;-69
2022/09/07 07:02:44;;;;;;;10.02;9.63;;;;;;;23.88;52.84;101310.38;5040870;28;20064;-66
2022/09/07 07:05:10;;;;;;;10.07;9.68;;;;;;;23.84;50.28;101307.31;5046797;28;20060;-69
2022/09/07 07:07:35;;;;;;;10.23;9.80;;;;;;;23.19;53.42;101302.25;5058069;28;20143;-68
2022/09/07 07:10:01;;;;;;;9.80;9.40;;;;;;;23.18;52.86;101289.78;5046001;28;20565;-68
2022/09/07 07:12:29;;;;;;;10.20;9.80;;;;;;;22.41;54.60;101299.94;5046641;28;20064;-67
2022/09/07 07:14:54;;;;;;;10.15;9.75;;;;;;;26.21;48.40;101306.41;5043044;28;20032;-68
2022/09/07 07:17:20;;;;;;;10.00;9.60;;;;;;;24.68;49.51;101298.41;5037900;28;20041;-67
2022/09/07 07:19:46;;;;;;;9.95;9.55;;;;;;;24.29;50.52;101309.16;5044001;28;20090;-69
2022/09/07 07:22:11;;;;;;;10.90;10.40;;;;;;;24.26;51.40;101306.94;5050439;28;20499;-67
2022/09/07 07:24:37;;;;;;;10.90;10.40;;;;;;;23.65;54.60;101311.28;5050175;28;20044;-68
2022/09/07 07:27:02;;;;;;;10.10;9.70;;;;;;;24.95;52.19;101306.63;5050862;28;20043;-69
2022/09/07 07:29:28;;;;;;;10.15;9.75;;;;;;;24.59;50.73;101335.16;5044470;28;20025;-69
2022/09/07 07:31:53;;;;;;;10.30;9.90;;;;;;;25.08;51.49;101315.25;5040009;28;20029;-70
2022/09/07 07:34:19;;;;;;;10.38;9.90;;;;;;;26.14;49.93;101306.63;5045214;28;20032;-69
2022/09/07 07:36:45;;;;;;;9.90;9.50;;;;;;;27.18;47.02;101321.50;5039295;28;20112;-70
2022/09/07 07:39:10;;;;;;;9.90;9.50;;;;;;;26.19;48.36;101314.00;5050214;28;20171;-70
2022/09/07 07:41:36;;;;;;;10.25;9.85;;;;;;;25.85;49.84;101308.84;5045814;28;20040;-67
2022/09/07 07:44:02;;;;;;;10.00;9.60;;;;;;;25.76;47.47;101306.81;5051774;28;20056;-68
2022/09/07 07:46:29;;;;;;;10.20;9.80;;;;;;;27.62;44.44;101307.47;5038516;28;20033;-64
2022/09/07 07:48:54;;;;;;;10.05;9.65;;;;;;;27.69;44.70;101307.22;5044899;28;20151;-64
2022/09/07 07:51:20;;;;;;;10.23;9.82;;;;;;;26.91;45.29;101307.16;5054813;28;20104;-64
2022/09/07 07:53:46;;;;;;;9.90;9.50;;;;;;;27.75;42.34;101306.13;5046451;28;20537;-64
2022/09/07 07:56:12;;;;;;;9.90;9.50;;;;;;;27.25;45.11;101300.28;5052952;28;20036;-64
2022/09/07 07:58:39;;;;;;;10.05;9.65;;;;;;;27.21;44.78;101301.88;5053470;28;20412;-64
2022/09/07 08:01:11;;;;;;;10.10;9.70;;;;;;;26.60;43.71;101301.56;5051056;28;20029;-69
2022/09/07 08:03:39;;;;;;;10.23;9.82;;;;;;;26.94;44.92;101293.84;5043987;28;20037;-70
2022/09/07 08:06:31;;;;;;;10.02;9.63;;;;;;;25.01;47.03;101289.34;5059089;28;20029;-68
2022/09/07 08:08:57;;;;;;;9.95;9.55;;;;;;;26.57;43.64;101299.34;5056687;28;20098;-66
2022/09/07 08:11:22;;;;;;;10.20;9.80;;;;;;;26.80;45.02;101292.66;5059281;28;20016;-68
2022/09/07 08:13:49;;;;;;;10.20;9.80;;;;;;;24.34;48.87;101298.44;5060558;28;20434;-65
2022/09/07 08:16:16;;;;;;;9.88;9.48;;;;;;;25.10;51.39;101276.16;5053409;28;20034;-67
2022/09/07 08:18:42;;;;;;;9.90;9.50;;;;;;;25.43;49.46;101278.75;5058943;28;20036;-66
2022/09/07 08:21:13;;;;;;;10.60;10.10;;;;;;;25.54;50.34;101277.75;5061235;28;20025;-68
2022/09/07 08:23:40;;;;;;;9.90;9.50;;;;;;;26.23;48.50;101298.81;5042905;28;20025;-67
2022/09/07 08:26:06;;;;;;;10.00;9.60;;;;;;;24.79;52.47;101286.59;5059643;28;20025;-68
2022/09/07 08:28:35;;;;;;;9.90;9.50;;;;;;;24.37;53.02;101292.50;5044405;28;20025;-66
2022/09/07 08:31:06;;;;;;;10.05;9.65;;;;;;;23.81;58.41;101282.63;5048778;28;20805;-68
2022/09/07 08:33:34;;;;;;;10.85;10.35;;;;;;;24.08;56.43;101286.31;5053410;28;20116;-68
2022/09/07 08:36:02;;;;;;;10.02;9.63;;;;;;;25.18;52.43;101279.25;5057063;28;20029;-66
2022/09/07 08:38:29;;;;;;;10.20;9.80;;;;;;;25.49;50.07;101266.03;5050010;28;20027;-68
2022/09/07 08:40:56;;;;;;;10.20;9.80;;;;;;;26.17;50.12;101273.47;5046363;28;20024;-68
2022/09/07 08:43:50;;;;;;;9.75;9.35;;;;;;;26.33;52.69;101276.31;5050904;28;20053;-68
2022/09/07 08:46:37;;;;;;;9.68;9.27;;;;;;;26.13;50.49;101272.34;5055196;28;20492;-68
2022/09/07 08:49:05;;;;;;;9.82;9.43;;;;;;;25.73;53.83;101252.97;5050078;28;20035;-68
2022/09/07 08:51:42;;;;;;;9.95;9.55;;;;;;;25.01;57.54;101246.72;5053221;28;20043;-68
2022/09/07 08:54:12;;;;;;;10.18;9.77;;;;;;;24.21;63.84;101245.31;5052594;28;20060;-67
2022/09/07 08:56:44;;;;;;;9.95;9.55;;;;;;;24.89;64.23;101237.88;5052950;28;20024;-67
2022/09/07 08:59:40;;;;;;;9.73;9.32;;;;;;;24.42;65.24;101232.09;5056431;28;20016;-68
2022/09/07 09:02:13;;;;;;;10.30;9.85;;;;;;;24.12;67.60;101227.03;5050867;28;20036;-68
2022/09/07 09:04:41;;;;;;;10.00;9.60;;;;;;;23.68;70.42;101224.13;5070559;28;20012;-67
2022/09/07 09:07:23;;;;;;;10.50;10.00;;;;;;;24.18;69.40;101231.47;5050719;28;20103;-63
2022/09/07 09:10:14;;;;;;;10.52;10.02;;;;;;;24.13;69.60;101229.47;5037435;28;20052;-63
2022/09/07 09:12:58;;;;;;;10.85;10.35;;;;;;;24.00;72.42;101240.66;5032081;28;20542;-64
2022/09/07 09:15:46;;;;;;;11.27;10.77;;;;;;;23.96;72.28;101236.81;5032319;28;20037;-63
2022/09/07 09:18:43;;;;;;;10.93;10.43;;;;;;;23.67;74.08;101228.72;5045941;28;20167;-63
2022/09/07 09:21:14;;;;;;;10.70;10.20;;;;;;;22.59;79.33;101227.63;5048735;28;20567;-63
2022/09/07 09:23:42;;;;;;;11.43;10.93;;;;;;;23.20;79.11;101228.09;5042481;28;20040;-64
2022/09/07 09:26:20;;;;;;;10.60;10.10;;;;;;;23.71;76.37;101227.16;5051731;28;20449;-63
2022/09/07 09:28:45;;;;;;;10.18;9.73;;;;;;;23.83;74.95;101224.38;5039644;28;20040;-62
2022/09/07 09:31:19;;;;;;;10.50;10.00;;;;;;;24.27;72.79;101216.41;5035790;28;20029;-69
2022/09/07 09:34:05;;;;;;;;;;;;;;;22.36;79.43;101210.63;5039403;28;20033;-69
2022/09/07 09:36:33;;;;;;;10.75;10.25;;;;;;;24.06;76.03;101215.28;5038102;28;20208;-67
2022/09/07 09:39:00;;;;;;;9.88;9.48;;;;;;;23.76;74.53;101212.06;5053308;28;20393;-67
2022/09/07 09:41:35;;;;;;;10.40;9.90;;;;;;;23.09;76.06;101212.72;5040430;28;20021;-66
2022/09/07 09:44:04;;;;;;;10.00;9.60;;;;;;;22.97;79.27;101212.75;5051217;28;20125;-65
2022/09/07 09:46:32;;;;;;;10.15;9.75;;;;;;;23.09;79.84;101210.03;5051470;28;20039;-65
2022/09/07 09:49:12;;;;;;;9.90;9.50;;;;;;;23.17;79.82;101199.63;5052161;28;20029;-67
2022/09/07 09:51:44;;;;;;;9.90;9.50;;;;;;;23.17;80.52;101204.22;5049855;28;20461;-65
2022/09/07 09:54:43;;;;;;;10.52;10.02;;;;;;;23.16;81.26;101211.53;5051875;28;20033;-66
2022/09/07 09:57:47;;;;;;;10.50;10.00;;;;;;;23.78;79.47;101207.22;5048207;28;20029;-68
2022/09/07 10:00:18;;;;;;;10.13;9.70;;;;;;;23.82;77.58;101192.94;5043454;28;20033;-66
2022/09/07 10:03:06;;;;;;;10.40;9.90;;;;;;;23.57;77.47;101187.06;5049717;28;20068;-67
2022/09/07 10:05:31;;;;;;;10.07;9.68;;;;;;;23.36;79.98;101189.44;5043726;28;20071;-67
2022/09/07 10:07:57;;;;;;;10.70;10.20;;;;;;;23.79;78.72;101196.13;5050807;28;20116;-67
2022/09/07 10:10:25;;;;;;;10.93;10.43;;;;;;;23.91;78.44;101194.16;5047963;28;20016;-63
2022/09/07 10:12:53;;;;;;;10.68;10.18;;;;;;;22.82;81.08;101183.47;5053493;28;20021;-63
2022/09/07 10:15:29;;;;;;;9.90;9.50;;;;;;;23.20;79.84;101189.38;5060478;28;20020;-65
2022/09/07 10:17:55;;;;;;;10.30;9.80;;;;;;;23.63;78.69;101195.06;5043834;28;20516;-62
2022/09/07 10:20:20;;;;;;;10.80;10.30;;;;;;;23.97;77.56;101197.78;5045481;28;20492;-62
2022/09/07 10:23:18;;;;;;;10.80;10.30;;;;;;;24.79;74.93;101191.63;5054154;28;20160;-63
2022/09/07 10:25:43;;;;;;;10.63;10.13;;;;;;;23.24;80.50;101194.06;5040163;28;20078;-67
2022/09/07 10:28:08;;;;;;;10.70;10.20;;;;;;;23.63;79.61;101192.34;5035330;28;20033;-67
2022/09/07 10:30:56;;;;;;;10.30;9.80;;;;;;;24.10;77.38;101177.66;5044442;28;20791;-66
2022/09/07 10:33:55;;;;;;;9.73;9.32;;;;;;;23.88;78.46;101180.31;5039863;28;20109;-66
2022/09/07 10:36:38;;;;;;;10.68;10.18;;;;;;;23.93;79.92;101178.47;5046499;28;20465;-65
2022/09/07 10:39:11;;;;;;;10.13;9.73;;;;;;;23.74;80.10;101185.22;5039748;28;20429;-65
2022/09/07 10:41:47;;;;;;;10.43;9.93;;;;;;;23.19;83.32;101175.00;5033887;28;20477;-65
2022/09/07 10:44:31;;;;;;;10.15;9.73;;;;;;;23.49;80.29;101180.16;5045303;28;20108;-66
2022/09/07 10:47:04;;;;;;;9.80;9.40;;;;;;;23.99;80.15;101165.84;5044703;28;20178;-66
2022/09/07 10:50:00;;;;;;;9.80;9.40;;;;;;;23.41;81.68;101170.53;5041880;28;20100;-66
2022/09/07 10:52:48;;;;;;;9.60;9.20;;;;;;;23.34;81.53;101174.47;5048452;28;20037;-65
2022/09/07 10:55:25;;;;;;;10.35;9.85;;;;;;;23.68;80.89;101172.66;5043563;28;20487;-65
2022/09/07 10:58:32;;;;;;;10.25;9.77;;;;;;;23.80;79.39;101161.75;5051351;28;20104;-65
2022/09/07 11:01:22;;;;;;;10.05;9.65;;;;;;;24.00;79.42;101153.91;5030959;28;20179;-66
2022/09/07 11:04:00;;;;;;;10.00;9.60;;;;;;;24.31;76.95;101157.06;5046734;28;20083;-66
2022/09/07 11:06:47;;;;;;;10.40;9.90;;;;;;;24.76;74.02;101146.84;5046870;28;20032;-66
2022/09/07 11:09:15;;;;;;;10.38;9.88;;;;;;;24.57;75.64;101139.25;5039459;28;20029;-65
2022/09/07 11:11:49;;;;;;;9.70;9.30;;;;;;;24.59;74.85;101143.34;5045249;28;20033;-66
2022/09/07 11:14:18;;;;;;;9.57;9.18;;;;;;;25.18;70.90;101142.66;5041074;28;20032;-65
2022/09/07 11:16:56;;;;;;;9.85;9.45;;;;;;;23.62;78.33;101143.84;5045294;28;20036;-65
2022/09/07 11:19:30;;;;;;;9.70;9.30;;;;;;;23.78;79.74;101136.78;5050585;28;20029;-66
2022/09/07 11:22:05;;;;;;;9.90;9.50;;;;;;;24.26;76.99;101134.25;5051349;28;20057;-66
2022/09/07 11:24:46;;;;;;;10.77;10.27;;;;;;;24.40;76.84;101129.31;5040237;28;20360;-63
2022/09/07 11:27:20;;;;;;;10.43;9.93;;;;;;;23.92;77.90;101119.09;5052669;28;20058;-66
2022/09/07 11:30:20;;;;;;;9.93;9.52;;;;;;;23.90;80.42;101119.38;5043096;28;20025;-66
2022/09/07 11:32:58;;;;;;;9.60;9.20;;;;;;;23.58;80.54;101123.72;5046439;28;20029;-65